sensor_id;sensor_type;location;lat;lon;timestamp;pressure;altitude;pressure_sealevel;temperature;humidity
10093;BME280;5085;48.092;11.484;2023-02-28T00:00:18;95589.28;;;-3.25;100.00
10093;BME280;5085;48.092;11.484;2023-02-28T00:02:45;95587.28;;;-3.23;100.00
10093;BME280;5085;48.092;11.484;2023-02-28T00:05:14;95581.84;;;-3.21;100.00
10093;BME280;5085;48.092;11.484;2023-02-28T00:07:41;95593.75;;;-3.25;100.00
10093;BME280;5085;48.092;11.484;2023-02-28T00:10:10;95585.19;;;-3.28;100.00
10093;BME280;5085;48.092;11.484;2023-02-28T00:12:37;95576.66;;;-3.30;100.00
10093;BME280;5085;48.092;11.484;2023-02-28T00:15:09;95579.09;;;-3.28;100.00
10093;BME280;5085;48.092;11.484;2023-02-28T00:17:35;95569.56;;;-3.29;100.00
10093;BME280;5085;48.092;11.484;2023-02-28T00:20:02;95567.94;;;-3.30;100.00
10093;BME280;5085;48.092;11.484;2023-02-28T00:22:30;95575.03;;;-3.31;100.00
10093;BME280;5085;48.092;11.484;2023-02-28T00:24:56;95570.94;;;-3.33;100.00
10093;BME280;5085;48.092;11.484;2023-02-28T00:27:22;95573.91;;;-3.36;100.00
10093;BME280;5085;48.092;11.484;2023-02-28T00:29:48;95570.66;;;-3.38;100.00
10093;BME280;5085;48.092;11.484;2023-02-28T00:32:14;95574.44;;;-3.41;100.00
10093;BME280;5085;48.092;11.484;2023-02-28T00:34:40;95571.34;;;-3.44;100.00
10093;BME280;5085;48.092;11.484;2023-02-28T00:37:11;95569.91;;;-3.47;100.00
10093;BME280;5085;48.092;11.484;2023-02-28T00:39:38;95566.25;;;-3.46;100.00
10093;BME280;5085;48.092;11.484;2023-02-28T00:42:05;95571.34;;;-3.44;100.00
10093;BME280;5085;48.092;11.484;2023-02-28T00:44:32;95577.88;;;-3.40;100.00
10093;BME280;5085;48.092;11.484;2023-02-28T00:46:58;95569.84;;;-3.39;100.00
10093;BME280;5085;48.092;11.484;2023-02-28T00:49:25;95571.81;;;-3.41;100.00
10093;BME280;5085;48.092;11.484;2023-02-28T00:51:52;95572.34;;;-3.45;100.00
10093;BME280;5085;48.092;11.484;2023-02-28T00:54:19;95567.78;;;-3.52;100.00
10093;BME280;5085;48.092;11.484;2023-02-28T00:56:47;95565.78;;;-3.49;100.00
10093;BME280;5085;48.092;11.484;2023-02-28T00:59:14;95576.97;;;-3.47;100.00
10093;BME280;5085;48.092;11.484;2023-02-28T01:01:41;95569.91;;;-3.47;100.00
10093;BME280;5085;48.092;11.484;2023-02-28T01:04:07;95564.63;;;-3.47;100.00
10093;BME280;5085;48.092;11.484;2023-02-28T01:06:35;95555.09;;;-3.48;100.00
10093;BME280;5085;48.092;11.484;2023-02-28T01:09:03;95573.34;;;-3.46;100.00
10093;BME280;5085;48.092;11.484;2023-02-28T01:11:29;95553.44;;;-3.49;100.00
10093;BME280;5085;48.092;11.484;2023-02-28T01:13:55;95552.63;;;-3.49;100.00
10093;BME280;5085;48.092;11.484;2023-02-28T01:16:28;95549.00;;;-3.48;100.00
10093;BME280;5085;48.092;11.484;2023-02-28T01:18:54;95549.00;;;-3.48;100.00
10093;BME280;5085;48.092;11.484;2023-02-28T01:21:21;95552.63;;;-3.49;100.00
10093;BME280;5085;48.092;11.484;2023-02-28T01:23:48;95553.63;;;-3.50;100.00
10093;BME280;5085;48.092;11.484;2023-02-28T01:26:17;95550.53;;;-3.54;100.00
10093;BME280;5085;48.092;11.484;2023-02-28T01:28:43;95552.53;;;-3.56;100.00
10093;BME280;5085;48.092;11.484;2023-02-28T01:31:10;95543.16;;;-3.59;100.00
10093;BME280;5085;48.092;11.484;2023-02-28T01:33:41;95535.28;;;-3.59;100.00
10093;BME280;5085;48.092;11.484;2023-02-28T01:36:12;95545.34;;;-3.62;100.00
10093;BME280;5085;48.092;11.484;2023-02-28T01:38:39;95540.59;;;-3.67;100.00
10093;BME280;5085;48.092;11.484;2023-02-28T01:41:06;95541.41;;;-3.66;100.00
10093;BME280;5085;48.092;11.484;2023-02-28T01:43:54;95534.25;;;-3.72;100.00
10093;BME280;5085;48.092;11.484;2023-02-28T01:46:20;95538.03;;;-3.75;100.00
10093;BME280;5085;48.092;11.484;2023-02-28T01:48:59;95532.63;;;-3.73;100.00
10093;BME280;5085;48.092;11.484;2023-02-28T01:51:33;95528.50;;;-3.76;100.00
10093;BME280;5085;48.092;11.484;2023-02-28T01:54:05;95531.75;;;-3.74;100.00
10093;BME280;5085;48.092;11.484;2023-02-28T01:56:44;95527.50;;;-3.75;100.00
10093;BME280;5085;48.092;11.484;2023-02-28T01:59:14;95537.41;;;-3.77;100.00
10093;BME280;5085;48.092;11.484;2023-02-28T02:01:43;95522.78;;;-3.80;100.00
10093;BME280;5085;48.092;11.484;2023-02-28T02:04:09;95523.59;;;-3.79;100.00
10093;BME280;5085;48.092;11.484;2023-02-28T02:06:42;95519.53;;;-3.82;100.00
10093;BME280;5085;48.092;11.484;2023-02-28T02:09:10;95525.41;;;-3.80;100.00
10093;BME280;5085;48.092;11.484;2023-02-28T02:11:39;95522.78;;;-3.80;100.00
10093;BME280;5085;48.092;11.484;2023-02-28T02:14:36;95521.97;;;-3.80;100.00
10093;BME280;5085;48.092;11.484;2023-02-28T02:35:55;95519.28;;;-3.95;100.00
10093;BME280;5085;48.092;11.484;2023-02-28T02:41:38;95511.75;;;-3.98;100.00
10093;BME280;5085;48.092;11.484;2023-02-28T02:46:44;95509.94;;;-3.97;100.00
10093;BME280;5085;48.092;11.484;2023-02-28T02:49:27;95504.66;;;-3.97;100.00
10093;BME280;5085;48.092;11.484;2023-02-28T02:51:56;95503.38;;;-4.02;100.00
10093;BME280;5085;48.092;11.484;2023-02-28T02:54:27;95504.38;;;-4.03;100.00
10093;BME280;5085;48.092;11.484;2023-02-28T02:57:01;95506.81;;;-4.01;100.00
10093;BME280;5085;48.092;11.484;2023-02-28T02:59:30;95501.56;;;-4.01;100.00
10093;BME280;5085;48.092;11.484;2023-02-28T03:02:04;95500.75;;;-4.02;100.00
10093;BME280;5085;48.092;11.484;2023-02-28T03:04:41;95500.56;;;-4.00;100.00
10093;BME280;5085;48.092;11.484;2023-02-28T03:07:09;95503.38;;;-4.02;100.00
10093;BME280;5085;48.092;11.484;2023-02-28T03:09:35;95500.94;;;-4.03;100.00
10093;BME280;5085;48.092;11.484;2023-02-28T03:12:09;95506.34;;;-4.05;100.00
10093;BME280;5085;48.092;11.484;2023-02-28T03:20:07;95503.25;;;-4.08;100.00
10093;BME280;5085;48.092;11.484;2023-02-28T03:28:21;95513.25;;;-4.04;100.00
10093;BME280;5085;48.092;11.484;2023-02-28T03:30:51;95516.88;;;-4.05;100.00
10093;BME280;5085;48.092;11.484;2023-02-28T03:34:04;95507.97;;;-4.04;100.00
10093;BME280;5085;48.092;11.484;2023-02-28T03:36:37;95510.97;;;-4.07;100.00
10093;BME280;5085;48.092;11.484;2023-02-28T03:41:59;95514.47;;;-4.14;100.00
10093;BME280;5085;48.092;11.484;2023-02-28T03:44:32;95505.78;;;-4.15;100.00
10093;BME280;5085;48.092;11.484;2023-02-28T03:47:23;95512.66;;;-4.14;100.00
10093;BME280;5085;48.092;11.484;2023-02-28T03:50:39;95512.84;;;-4.15;100.00
10093;BME280;5085;48.092;11.484;2023-02-28T03:52:44;95516.44;;;-4.16;100.00
10093;BME280;5085;48.092;11.484;2023-02-28T03:55:14;95522.69;;;-4.17;100.00
10093;BME280;5085;48.092;11.484;2023-02-28T03:58:22;95517.97;;;-4.22;100.00
10093;BME280;5085;48.092;11.484;2023-02-28T04:00:43;95520.94;;;-4.25;100.00
10093;BME280;5085;48.092;11.484;2023-02-28T04:03:11;95519.31;;;-4.26;100.00
10093;BME280;5085;48.092;11.484;2023-02-28T04:05:54;95525.22;;;-4.24;100.00
10093;BME280;5085;48.092;11.484;2023-02-28T04:08:21;95534.25;;;-4.27;100.00
10093;BME280;5085;48.092;11.484;2023-02-28T04:10:57;95536.06;;;-4.27;100.00
10093;BME280;5085;48.092;11.484;2023-02-28T04:13:26;95539.69;;;-4.28;100.00
10093;BME280;5085;48.092;11.484;2023-02-28T04:15:52;95553.81;;;-4.29;100.00
10093;BME280;5085;48.092;11.484;2023-02-28T04:18:18;95551.66;;;-4.25;100.00
10093;BME280;5085;48.092;11.484;2023-02-28T04:20:50;95551.13;;;-4.21;100.00
10093;BME280;5085;48.092;11.484;2023-02-28T04:23:16;95557.16;;;-4.12;100.00
10093;BME280;5085;48.092;11.484;2023-02-28T04:25:42;95564.03;;;-4.03;100.00
10093;BME280;5085;48.092;11.484;2023-02-28T04:28:08;95559.06;;;-3.98;100.00
10093;BME280;5085;48.092;11.484;2023-02-28T04:30:34;95560.66;;;-3.89;100.00
10093;BME280;5085;48.092;11.484;2023-02-28T04:33:00;95559.78;;;-3.81;100.00
10093;BME280;5085;48.092;11.484;2023-02-28T04:35:26;95545.09;;;-3.75;100.00
10093;BME280;5085;48.092;11.484;2023-02-28T04:37:52;95542.13;;;-3.72;100.00
10093;BME280;5085;48.092;11.484;2023-02-28T04:40:18;95537.97;;;-3.67;100.00
10093;BME280;5085;48.092;11.484;2023-02-28T04:42:44;95531.91;;;-3.67;100.00
10093;BME280;5085;48.092;11.484;2023-02-28T04:45:10;95551.94;;;-3.66;100.00
10093;BME280;5085;48.092;11.484;2023-02-28T04:47:36;95544.22;;;-3.68;100.00
10093;BME280;5085;48.092;11.484;2023-02-28T04:50:03;95556.19;;;-3.65;100.00
10093;BME280;5085;48.092;11.484;2023-02-28T04:52:29;95554.03;;;-3.62;100.00
10093;BME280;5085;48.092;11.484;2023-02-28T04:54:55;95560.78;;;-3.59;100.00
10093;BME280;5085;48.092;11.484;2023-02-28T04:57:21;95551.72;;;-3.57;100.00
10093;BME280;5085;48.092;11.484;2023-02-28T04:59:47;95558.63;;;-3.56;100.00
10093;BME280;5085;48.092;11.484;2023-02-28T05:02:13;95557.44;;;-3.53;100.00
10093;BME280;5085;48.092;11.484;2023-02-28T05:04:39;95558.91;;;-3.50;100.00
10093;BME280;5085;48.092;11.484;2023-02-28T05:07:05;95564.97;;;-3.50;100.00
10093;BME280;5085;48.092;11.484;2023-02-28T05:09:31;95568.25;;;-3.48;100.00
10093;BME280;5085;48.092;11.484;2023-02-28T05:11:59;95569.72;;;-3.45;100.00
10093;BME280;5085;48.092;11.484;2023-02-28T05:14:25;95563.63;;;-3.46;100.00
10093;BME280;5085;48.092;11.484;2023-02-28T05:16:51;95565.44;;;-3.46;100.00
10093;BME280;5085;48.092;11.484;2023-02-28T05:19:17;95566.25;;;-3.46;100.00
10093;BME280;5085;48.092;11.484;2023-02-28T05:21:54;95571.66;;;-3.39;100.00
10093;BME280;5085;48.092;11.484;2023-02-28T05:24:20;95571.28;;;-3.36;100.00
10093;BME280;5085;48.092;11.484;2023-02-28T05:26:50;95576.53;;;-3.36;100.00
10093;BME280;5085;48.092;11.484;2023-02-28T05:29:17;95571.13;;;-3.35;100.00
10093;BME280;5085;48.092;11.484;2023-02-28T05:31:43;95565.31;;;-3.30;100.00
10093;BME280;5085;48.092;11.484;2023-02-28T05:34:09;95563.31;;;-3.28;100.00
10093;BME280;5085;48.092;11.484;2023-02-28T05:36:38;95574.50;;;-3.26;100.00
10093;BME280;5085;48.092;11.484;2023-02-28T05:39:05;95570.66;;;-3.23;100.00
10093;BME280;5085;48.092;11.484;2023-02-28T05:41:33;95570.66;;;-3.23;100.00
10093;BME280;5085;48.092;11.484;2023-02-28T05:43:59;95571.31;;;-3.21;100.00
10093;BME280;5085;48.092;11.484;2023-02-28T05:46:26;95574.97;;;-3.22;100.00
10093;BME280;5085;48.092;11.484;2023-02-28T05:48:52;95577.88;;;-3.17;100.00
10093;BME280;5085;48.092;11.484;2023-02-28T05:51:18;95575.72;;;-3.14;100.00
10093;BME280;5085;48.092;11.484;2023-02-28T05:53:45;95575.16;;;-3.09;100.00
10093;BME280;5085;48.092;11.484;2023-02-28T05:56:11;95579.25;;;-3.07;100.00
10093;BME280;5085;48.092;11.484;2023-02-28T05:58:37;95590.09;;;-3.02;100.00
10093;BME280;5085;48.092;11.484;2023-02-28T06:01:31;95582.63;;;-2.98;100.00
10093;BME280;5085;48.092;11.484;2023-02-28T06:03:59;95588.19;;;-2.93;100.00
10093;BME280;5085;48.092;11.484;2023-02-28T06:06:25;95586.38;;;-2.92;100.00
10093;BME280;5085;48.092;11.484;2023-02-28T06:08:51;95594.91;;;-2.90;100.00
10093;BME280;5085;48.092;11.484;2023-02-28T06:11:17;95591.44;;;-2.91;100.00
10093;BME280;5085;48.092;11.484;2023-02-28T06:13:45;95599.16;;;-2.89;100.00
10093;BME280;5085;48.092;11.484;2023-02-28T06:16:11;95605.09;;;-2.87;100.00
10093;BME280;5085;48.092;11.484;2023-02-28T06:18:38;95599.47;;;-2.84;100.00
10093;BME280;5085;48.092;11.484;2023-02-28T06:21:04;95594.63;;;-2.81;100.00
10093;BME280;5085;48.092;11.484;2023-02-28T06:23:30;95596.28;;;-2.80;100.00
10093;BME280;5085;48.092;11.484;2023-02-28T06:25:56;95600.38;;;-2.77;100.00
10093;BME280;5085;48.092;11.484;2023-02-28T06:28:25;95598.72;;;-2.78;100.00
10093;BME280;5085;48.092;11.484;2023-02-28T06:30:52;95599.38;;;-2.76;100.00
10093;BME280;5085;48.092;11.484;2023-02-28T06:33:24;95605.28;;;-2.74;100.00
10093;BME280;5085;48.092;11.484;2023-02-28T06:35:51;95614.00;;;-2.73;100.00
10093;BME280;5085;48.092;11.484;2023-02-28T06:38:18;95610.81;;;-2.69;100.00
10093;BME280;5085;48.092;11.484;2023-02-28T06:40:44;95616.56;;;-2.65;100.00
10093;BME280;5085;48.092;11.484;2023-02-28T06:43:18;95616.38;;;-2.64;100.00
10093;BME280;5085;48.092;11.484;2023-02-28T06:45:44;95623.47;;;-2.64;100.00
10093;BME280;5085;48.092;11.484;2023-02-28T06:48:10;95637.63;;;-2.65;100.00
10093;BME280;5085;48.092;11.484;2023-02-28T06:50:37;95641.91;;;-2.64;100.00
10093;BME280;5085;48.092;11.484;2023-02-28T06:53:03;95640.09;;;-2.64;100.00
10093;BME280;5085;48.092;11.484;2023-02-28T06:55:30;95636.09;;;-2.60;100.00
10093;BME280;5085;48.092;11.484;2023-02-28T06:57:57;95637.38;;;-2.56;100.00
10093;BME280;5085;48.092;11.484;2023-02-28T07:00:23;95635.38;;;-2.54;100.00
10093;BME280;5085;48.092;11.484;2023-02-28T07:02:49;95638.66;;;-2.52;100.00
10093;BME280;5085;48.092;11.484;2023-02-28T07:05:15;95638.47;;;-2.50;100.00
10093;BME280;5085;48.092;11.484;2023-02-28T07:07:44;95644.72;;;-2.51;100.00
10093;BME280;5085;48.092;11.484;2023-02-28T07:10:12;95638.75;;;-2.45;100.00
10093;BME280;5085;48.092;11.484;2023-02-28T07:12:42;95642.81;;;-2.42;100.00
10093;BME280;5085;48.092;11.484;2023-02-28T07:15:10;95651.38;;;-2.40;100.00
10093;BME280;5085;48.092;11.484;2023-02-28T07:17:36;95649.56;;;-2.40;100.00
10093;BME280;5085;48.092;11.484;2023-02-28T07:20:02;95659.75;;;-2.37;100.00
10093;BME280;5085;48.092;11.484;2023-02-28T07:22:33;95656.94;;;-2.35;100.00
10093;BME280;5085;48.092;11.484;2023-02-28T07:24:59;95653.13;;;-2.33;100.00
10093;BME280;5085;48.092;11.484;2023-02-28T07:27:25;95655.38;;;-2.30;100.00
10093;BME280;5085;48.092;11.484;2023-02-28T07:29:51;95653.03;;;-2.24;100.00
10093;BME280;5085;48.092;11.484;2023-02-28T07:32:18;95652.38;;;-2.27;100.00
10093;BME280;5085;48.092;11.484;2023-02-28T07:34:44;95661.13;;;-2.26;100.00
10093;BME280;5085;48.092;11.484;2023-02-28T07:37:10;95654.03;;;-2.26;100.00
10093;BME280;5085;48.092;11.484;2023-02-28T07:39:36;95652.03;;;-2.23;100.00
10093;BME280;5085;48.092;11.484;2023-02-28T07:42:06;95650.22;;;-2.23;100.00
10093;BME280;5085;48.092;11.484;2023-02-28T07:44:35;95645.56;;;-2.21;100.00
10093;BME280;5085;48.092;11.484;2023-02-28T07:47:07;95652.09;;;-2.17;100.00
10093;BME280;5085;48.092;11.484;2023-02-28T07:49:35;95636.28;;;-2.17;100.00
10093;BME280;5085;48.092;11.484;2023-02-28T07:52:02;95650.38;;;-2.10;100.00
10093;BME280;5085;48.092;11.484;2023-02-28T07:54:29;95647.03;;;-2.04;100.00
10093;BME280;5085;48.092;11.484;2023-02-28T07:56:55;95643.19;;;-2.01;100.00
10093;BME280;5085;48.092;11.484;2023-02-28T07:59:21;95646.91;;;-1.95;100.00
10093;BME280;5085;48.092;11.484;2023-02-28T08:01:47;95644.25;;;-1.95;100.00
10093;BME280;5085;48.092;11.484;2023-02-28T08:04:18;95649.84;;;-1.90;100.00
10093;BME280;5085;48.092;11.484;2023-02-28T08:06:44;95661.66;;;-1.86;100.00
10093;BME280;5085;48.092;11.484;2023-02-28T08:09:10;95657.25;;;-1.79;100.00
10093;BME280;5085;48.092;11.484;2023-02-28T08:11:36;95661.81;;;-1.73;100.00
10093;BME280;5085;48.092;11.484;2023-02-28T08:14:02;95672.00;;;-1.70;100.00
10093;BME280;5085;48.092;11.484;2023-02-28T08:16:28;95667.34;;;-1.68;100.00
10093;BME280;5085;48.092;11.484;2023-02-28T08:18:54;95665.53;;;-1.67;100.00
10093;BME280;5085;48.092;11.484;2023-02-28T08:21:21;95676.91;;;-1.67;100.00
10093;BME280;5085;48.092;11.484;2023-02-28T08:23:48;95670.75;;;-1.74;100.00
10093;BME280;5085;48.092;11.484;2023-02-28T08:26:18;95669.09;;;-1.75;100.00
10093;BME280;5085;48.092;11.484;2023-02-28T08:28:44;95680.91;;;-1.71;100.00
10093;BME280;5085;48.092;11.484;2023-02-28T08:31:12;95679.94;;;-1.70;100.00
10093;BME280;5085;48.092;11.484;2023-02-28T08:33:40;95679.53;;;-1.67;100.00
10093;BME280;5085;48.092;11.484;2023-02-28T08:36:07;95682.06;;;-1.59;100.00
10093;BME280;5085;48.092;11.484;2023-02-28T08:38:35;95681.72;;;-1.56;100.00
10093;BME280;5085;48.092;11.484;2023-02-28T08:41:06;95687.25;;;-1.51;100.00
10093;BME280;5085;48.092;11.484;2023-02-28T08:43:33;95690.16;;;-1.45;100.00
10093;BME280;5085;48.092;11.484;2023-02-28T08:46:00;95691.88;;;-1.38;100.00
10093;BME280;5085;48.092;11.484;2023-02-28T08:48:29;95695.41;;;-1.31;100.00
10093;BME280;5085;48.092;11.484;2023-02-28T08:50:57;95686.16;;;-1.20;100.00
10093;BME280;5085;48.092;11.484;2023-02-28T08:53:23;95688.06;;;-1.14;100.00
10093;BME280;5085;48.092;11.484;2023-02-28T08:56:04;95693.78;;;-1.10;100.00
10093;BME280;5085;48.092;11.484;2023-02-28T08:58:31;95696.25;;;-1.09;100.00
10093;BME280;5085;48.092;11.484;2023-02-28T09:00:57;95701.16;;;-1.06;100.00
10093;BME280;5085;48.092;11.484;2023-02-28T09:03:23;95697.31;;;-1.03;100.00
10093;BME280;5085;48.092;11.484;2023-02-28T09:05:55;95694.91;;;-0.98;100.00
10093;BME280;5085;48.092;11.484;2023-02-28T09:08:22;95694.38;;;-0.93;100.00
10093;BME280;5085;48.092;11.484;2023-02-28T09:10:48;95695.22;;;-0.86;100.00
10093;BME280;5085;48.092;11.484;2023-02-28T09:13:14;95697.94;;;-0.80;100.00
10093;BME280;5085;48.092;11.484;2023-02-28T09:15:40;95694.09;;;-0.77;100.00
10093;BME280;5085;48.092;11.484;2023-02-28T09:18:06;95703.41;;;-0.81;100.00
10093;BME280;5085;48.092;11.484;2023-02-28T09:20:39;95701.03;;;-0.76;100.00
10093;BME280;5085;48.092;11.484;2023-02-28T09:23:07;95705.91;;;-0.73;100.00
10093;BME280;5085;48.092;11.484;2023-02-28T09:25:54;95710.22;;;-0.72;100.00
10093;BME280;5085;48.092;11.484;2023-02-28T09:28:21;95708.38;;;-0.71;100.00
10093;BME280;5085;48.092;11.484;2023-02-28T09:30:53;95714.06;;;-0.74;100.00
10093;BME280;5085;48.092;11.484;2023-02-28T09:33:21;95713.03;;;-0.73;100.00
10093;BME280;5085;48.092;11.484;2023-02-28T09:35:48;95719.22;;;-0.66;100.00
10093;BME280;5085;48.092;11.484;2023-02-28T09:38:14;95715.63;;;-0.59;100.00
10093;BME280;5085;48.092;11.484;2023-02-28T09:40:48;95713.69;;;-0.43;100.00
10093;BME280;5085;48.092;11.484;2023-02-28T09:43:16;95722.38;;;-0.28;100.00
10093;BME280;5085;48.092;11.484;2023-02-28T09:45:48;95727.09;;;-0.23;100.00
10093;BME280;5085;48.092;11.484;2023-02-28T09:48:25;95727.75;;;-0.15;100.00
10093;BME280;5085;48.092;11.484;2023-02-28T09:51:03;95738.56;;;-0.10;99.98
10093;BME280;5085;48.092;11.484;2023-02-28T09:53:32;95735.34;;;-0.05;99.50
10093;BME280;5085;48.092;11.484;2023-02-28T09:56:15;95739.22;;;-0.08;98.99
10093;BME280;5085;48.092;11.484;2023-02-28T09:59:00;95731.66;;;-0.11;99.79
10093;BME280;5085;48.092;11.484;2023-02-28T10:01:39;95736.41;;;-0.28;100.00
10093;BME280;5085;48.092;11.484;2023-02-28T10:06:56;95745.50;;;-0.37;100.00
10093;BME280;5085;48.092;11.484;2023-02-28T10:09:30;95738.16;;;-0.41;100.00
10093;BME280;5085;48.092;11.484;2023-02-28T10:12:05;95739.44;;;-0.31;100.00
10093;BME280;5085;48.092;11.484;2023-02-28T10:14:34;95749.66;;;-0.28;100.00
10093;BME280;5085;48.092;11.484;2023-02-28T10:17:09;95741.13;;;-0.23;100.00
10093;BME280;5085;48.092;11.484;2023-02-28T10:22:11;95755.03;;;-0.14;98.99
10093;BME280;5085;48.092;11.484;2023-02-28T10:24:46;95752.44;;;-0.08;98.76
10093;BME280;5085;48.092;11.484;2023-02-28T10:27:19;95754.50;;;-0.03;98.27
10093;BME280;5085;48.092;11.484;2023-02-28T10:29:47;95763.03;;;-0.08;98.62
10093;BME280;5085;48.092;11.484;2023-02-28T10:32:18;95772.03;;;-0.02;98.33
10093;BME280;5085;48.092;11.484;2023-02-28T10:34:45;95761.38;;;-0.09;98.85
10093;BME280;5085;48.092;11.484;2023-02-28T10:37:16;95763.78;;;-0.14;99.46
10093;BME280;5085;48.092;11.484;2023-02-28T10:39:44;95767.44;;;-0.15;99.78
10093;BME280;5085;48.092;11.484;2023-02-28T10:42:28;95776.28;;;-0.08;100.00
10093;BME280;5085;48.092;11.484;2023-02-28T10:58:32;95775.53;;;0.74;93.88
10093;BME280;5085;48.092;11.484;2023-02-28T11:01:14;95777.94;;;1.11;93.37
10093;BME280;5085;48.092;11.484;2023-02-28T11:03:40;95782.91;;;1.40;89.62
10093;BME280;5085;48.092;11.484;2023-02-28T11:06:13;95782.50;;;1.63;86.28
10093;BME280;5085;48.092;11.484;2023-02-28T11:08:46;95783.34;;;1.84;84.33
10093;BME280;5085;48.092;11.484;2023-02-28T11:11:13;95781.91;;;2.28;82.72
10093;BME280;5085;48.092;11.484;2023-02-28T11:13:39;95779.47;;;2.97;79.72
10093;BME280;5085;48.092;11.484;2023-02-28T11:16:07;95784.56;;;3.44;72.95
10093;BME280;5085;48.092;11.484;2023-02-28T11:21:07;95776.06;;;4.17;68.36
10093;BME280;5085;48.092;11.484;2023-02-28T11:23:36;95778.34;;;4.75;64.73
10093;BME280;5085;48.092;11.484;2023-02-28T11:26:04;95771.19;;;5.42;61.19
10093;BME280;5085;48.092;11.484;2023-02-28T11:28:35;95766.78;;;5.90;59.42
10093;BME280;5085;48.092;11.484;2023-02-28T11:33:44;95763.19;;;6.38;57.65
10093;BME280;5085;48.092;11.484;2023-02-28T11:36:12;95760.97;;;6.23;56.61
10093;BME280;5085;48.092;11.484;2023-02-28T11:38:38;95764.31;;;6.07;56.16
10093;BME280;5085;48.092;11.484;2023-02-28T11:46:49;95759.59;;;5.18;59.21
10093;BME280;5085;48.092;11.484;2023-02-28T11:54:59;95741.03;;;4.57;61.83
10093;BME280;5085;48.092;11.484;2023-02-28T11:57:56;95749.59;;;4.40;61.70
10093;BME280;5085;48.092;11.484;2023-02-28T12:05:44;95738.56;;;4.12;62.55
10093;BME280;5085;48.092;11.484;2023-02-28T12:08:24;95748.97;;;4.20;63.25
10093;BME280;5085;48.092;11.484;2023-02-28T12:11:29;95740.53;;;4.23;64.22
10093;BME280;5085;48.092;11.484;2023-02-28T12:22:14;95737.81;;;6.29;56.71
10093;BME280;5085;48.092;11.484;2023-02-28T12:27:47;95725.53;;;5.74;57.54
10093;BME280;5085;48.092;11.484;2023-02-28T12:30:35;95728.41;;;5.72;58.07
10093;BME280;5085;48.092;11.484;2023-02-28T12:33:13;95727.41;;;6.79;56.23
10093;BME280;5085;48.092;11.484;2023-02-28T12:36:08;95719.16;;;7.21;52.07
10093;BME280;5085;48.092;11.484;2023-02-28T12:39:13;95724.56;;;7.38;51.42
10093;BME280;5085;48.092;11.484;2023-02-28T12:41:46;95714.13;;;7.82;50.74
10093;BME280;5085;48.092;11.484;2023-02-28T12:44:33;95698.66;;;8.06;50.23
10093;BME280;5085;48.092;11.484;2023-02-28T12:47:02;95701.59;;;9.20;49.50
10093;BME280;5085;48.092;11.484;2023-02-28T12:49:34;95708.69;;;10.18;46.40
10093;BME280;5085;48.092;11.484;2023-02-28T12:52:03;95704.91;;;10.98;44.13
10093;BME280;5085;48.092;11.484;2023-02-28T12:54:49;95696.50;;;11.63;43.38
10093;BME280;5085;48.092;11.484;2023-02-28T13:06:05;95700.09;;;12.19;40.47
10093;BME280;5085;48.092;11.484;2023-02-28T13:19:34;95694.84;;;8.96;46.51
10093;BME280;5085;48.092;11.484;2023-02-28T13:22:02;95689.53;;;8.79;46.65
10093;BME280;5085;48.092;11.484;2023-02-28T13:29:43;95697.84;;;6.86;50.65
10093;BME280;5085;48.092;11.484;2023-02-28T13:39:57;95713.34;;;5.06;56.77
10093;BME280;5085;48.092;11.484;2023-02-28T13:42:32;95703.25;;;5.38;56.66
10093;BME280;5085;48.092;11.484;2023-02-28T13:47:33;95696.69;;;5.53;56.19
10093;BME280;5085;48.092;11.484;2023-02-28T13:50:37;95703.28;;;5.50;57.16
10093;BME280;5085;48.092;11.484;2023-02-28T13:53:36;95706.28;;;5.42;57.31
10093;BME280;5085;48.092;11.484;2023-02-28T13:56:30;95700.69;;;5.32;57.56
10093;BME280;5085;48.092;11.484;2023-02-28T13:59:15;95702.31;;;5.33;57.57
10093;BME280;5085;48.092;11.484;2023-02-28T14:04:42;95703.75;;;5.17;58.18
10093;BME280;5085;48.092;11.484;2023-02-28T14:07:20;95699.03;;;5.31;59.33
10093;BME280;5085;48.092;11.484;2023-02-28T14:09:55;95702.44;;;5.91;57.84
10093;BME280;5085;48.092;11.484;2023-02-28T14:15:42;95696.56;;;8.08;51.55
10093;BME280;5085;48.092;11.484;2023-02-28T14:20:43;95701.03;;;9.18;47.52
10093;BME280;5085;48.092;11.484;2023-02-28T14:23:19;95692.28;;;9.28;47.57
10093;BME280;5085;48.092;11.484;2023-02-28T14:25:54;95695.47;;;9.52;46.32
10093;BME280;5085;48.092;11.484;2023-02-28T14:32:05;95691.47;;;9.55;46.55
10093;BME280;5085;48.092;11.484;2023-02-28T14:37:28;95700.78;;;8.98;47.34
10093;BME280;5085;48.092;11.484;2023-02-28T14:39:56;95699.97;;;8.37;47.92
10093;BME280;5085;48.092;11.484;2023-02-28T14:42:33;95698.91;;;7.87;49.15
10093;BME280;5085;48.092;11.484;2023-02-28T14:45:00;95697.13;;;7.31;50.39
10093;BME280;5085;48.092;11.484;2023-02-28T14:47:35;95693.13;;;6.64;52.53
10093;BME280;5085;48.092;11.484;2023-02-28T14:50:03;95696.06;;;6.16;53.80
10093;BME280;5085;48.092;11.484;2023-02-28T14:52:31;95693.34;;;5.81;54.70
10093;BME280;5085;48.092;11.484;2023-02-28T14:55:01;95693.44;;;5.62;56.31
10093;BME280;5085;48.092;11.484;2023-02-28T15:00:03;95692.06;;;4.99;57.75
10093;BME280;5085;48.092;11.484;2023-02-28T15:02:33;95694.03;;;4.74;59.30
10093;BME280;5085;48.092;11.484;2023-02-28T15:07:37;95686.41;;;4.41;61.30
10093;BME280;5085;48.092;11.484;2023-02-28T15:10:09;95684.56;;;4.23;61.98
10093;BME280;5085;48.092;11.484;2023-02-28T15:12:36;95695.22;;;4.05;62.58
10093;BME280;5085;48.092;11.484;2023-02-28T15:15:02;95699.84;;;3.91;63.93
10093;BME280;5085;48.092;11.484;2023-02-28T15:17:29;95698.53;;;3.75;64.46
10093;BME280;5085;48.092;11.484;2023-02-28T15:19:56;95697.19;;;3.66;65.76
10093;BME280;5085;48.092;11.484;2023-02-28T15:22:35;95701.78;;;3.52;66.47
10093;BME280;5085;48.092;11.484;2023-02-28T15:25:02;95693.88;;;3.39;68.26
10093;BME280;5085;48.092;11.484;2023-02-28T15:27:32;95697.44;;;3.26;68.00
10093;BME280;5085;48.092;11.484;2023-02-28T15:30:00;95699.72;;;3.22;70.03
10093;BME280;5085;48.092;11.484;2023-02-28T15:32:33;95697.13;;;3.16;70.09
10093;BME280;5085;48.092;11.484;2023-02-28T15:35:19;95693.66;;;3.09;71.96
10093;BME280;5085;48.092;11.484;2023-02-28T15:37:48;95703.72;;;3.07;72.85